Airport View

Enter AWOS ICAO identifier for current METAR.

ex. KFNL

KROX 261237Z AUTO 22006KT 10SM CLR 17/13 RMK AO2

26 Jun 2019 12:51

Frequency: 108.8

Phone: 218-463-1803

Other Area AWOS: KRRT - KFGN - KBDE - KHCO

TAF KTVF 261121Z 2612/2712 21005KT P6SM SKC FM261800 25007KT P6SM FEW050 FEW250 TEMPO 2621/2623 25009G15KT P6SM FM270300 VRB04KT P6SM FEW040 SCT200